Time;durP1;ratioP1;P1;durP2;ratioP2;P2;SDS_P1;SDS_P2;PMS_P1;PMS_P2;Temp;Humidity;BMP_temperature;BMP_pressure;BME280_temperature;BME280_humidity;BME280_pressure;Samples;Min_cycle;Max_cycle;Signal;HPM_P1;HPM_P2
2023/12/10 00:00:04;;;;;;;22.13;2.40;;;;;;;9.24;100.00;97621.09;5054081;28;20245;-74
2023/12/10 00:02:30;;;;;;;13.50;1.83;;;;;;;9.23;100.00;97630.25;5053184;28;20047;-76
2023/12/10 00:04:55;;;;;;;15.43;2.42;;;;;;;9.39;100.00;97645.84;5034832;28;20025;-75
2023/12/10 00:07:20;;;;;;;12.90;1.73;;;;;;;9.37;100.00;97642.53;5034197;28;20025;-77
2023/12/10 00:09:46;;;;;;;11.05;1.42;;;;;;;9.26;100.00;97642.47;5052537;28;20029;-76
2023/12/10 00:12:11;;;;;;;9.75;1.60;;;;;;;9.20;100.00;97628.81;5049518;28;20021;-74
2023/12/10 00:14:36;;;;;;;9.88;1.50;;;;;;;9.25;100.00;97657.00;5057599;28;20032;-75
2023/12/10 00:17:01;;;;;;;8.45;1.38;;;;;;;9.09;100.00;97658.41;5058118;28;20025;-75
2023/12/10 00:19:27;;;;;;;12.38;1.70;;;;;;;9.18;100.00;97671.38;5032006;28;20035;-75
2023/12/10 00:21:52;;;;;;;7.32;1.35;;;;;;;9.15;100.00;97674.53;5055069;28;20044;-75
2023/12/10 00:24:18;;;;;;;21.70;2.13;;;;;;;9.29;100.00;97686.03;5046083;28;20095;-74
2023/12/10 00:26:43;;;;;;;14.43;1.90;;;;;;;9.17;100.00;97687.81;5029177;28;20366;-74
2023/12/10 00:29:08;;;;;;;11.20;2.28;;;;;;;9.12;100.00;97683.09;5059196;28;20309;-75
2023/12/10 00:31:34;;;;;;;20.13;2.70;;;;;;;9.21;100.00;97697.09;5051357;28;20025;-75
2023/12/10 00:33:59;;;;;;;13.20;1.83;;;;;;;9.23;100.00;97708.50;5058146;28;20091;-74
2023/12/10 00:36:24;;;;;;;18.25;2.55;;;;;;;9.15;100.00;97715.00;5049946;28;20028;-74
2023/12/10 00:38:49;;;;;;;24.67;2.70;;;;;;;9.13;100.00;97721.69;5044040;28;20021;-75
2023/12/10 00:41:15;;;;;;;15.05;2.03;;;;;;;9.15;100.00;97738.47;5026256;28;20088;-74
2023/12/10 00:43:41;;;;;;;23.85;3.30;;;;;;;9.15;100.00;97725.00;5043937;28;20024;-76
2023/12/10 00:46:06;;;;;;;17.38;2.72;;;;;;;9.15;100.00;97743.88;5052886;28;20021;-76
2023/12/10 00:48:32;;;;;;;15.63;2.20;;;;;;;9.13;100.00;97745.97;5056822;28;20048;-77
2023/12/10 00:50:57;;;;;;;21.15;2.70;;;;;;;9.07;100.00;97733.38;5063485;28;20020;-76
2023/12/10 00:53:23;;;;;;;28.25;2.92;;;;;;;9.06;100.00;97742.47;5045991;28;20264;-76
2023/12/10 00:55:48;;;;;;;17.20;2.75;;;;;;;9.11;100.00;97756.97;5063078;28;20028;-76
2023/12/10 00:58:14;;;;;;;29.17;3.25;;;;;;;9.07;100.00;97779.22;5063077;28;20021;-76
2023/12/10 01:00:40;;;;;;;20.50;2.60;;;;;;;9.13;100.00;97772.94;5035173;28;20025;-76
2023/12/10 01:03:06;;;;;;;22.77;2.50;;;;;;;9.08;100.00;97775.47;5054310;28;20036;-76
2023/12/10 01:05:31;;;;;;;15.77;2.85;;;;;;;9.03;100.00;97792.31;5063477;28;20028;-76
2023/12/10 01:07:56;;;;;;;18.70;2.72;;;;;;;9.09;100.00;97801.41;5056866;28;20048;-76
2023/12/10 01:10:22;;;;;;;22.38;2.63;;;;;;;9.05;100.00;97797.50;5044941;28;20032;-76
2023/12/10 01:12:47;;;;;;;24.05;3.00;;;;;;;9.03;100.00;97822.00;5056876;28;20203;-76
2023/12/10 01:15:12;;;;;;;21.35;2.70;;;;;;;8.91;100.00;97811.09;5031819;28;20038;-76
2023/12/10 01:17:37;;;;;;;14.65;2.33;;;;;;;8.97;100.00;97833.66;5042933;28;20322;-76
2023/12/10 01:20:06;;;;;;;15.43;2.67;;;;;;;8.87;100.00;97836.81;5063026;28;20127;-76
2023/12/10 01:22:31;;;;;;;24.47;3.27;;;;;;;9.00;100.00;97852.94;5063185;28;20344;-76
2023/12/10 01:24:58;;;;;;;22.40;3.03;;;;;;;9.04;100.00;97850.66;5045235;28;20025;-76
2023/12/10 01:27:23;;;;;;;14.57;2.55;;;;;;;8.86;100.00;97824.38;5056561;28;20548;-76
2023/12/10 01:29:48;;;;;;;20.27;2.55;;;;;;;9.03;100.00;97858.94;5042890;28;20029;-76
2023/12/10 01:32:13;;;;;;;20.85;3.10;;;;;;;8.98;100.00;97871.19;5054270;28;20025;-76
2023/12/10 01:34:41;;;;;;;20.98;2.75;;;;;;;8.95;100.00;97889.69;5035197;28;20033;-76
2023/12/10 01:37:07;;;;;;;24.73;2.92;;;;;;;8.94;100.00;97877.25;5056845;28;20032;-76
2023/12/10 01:39:32;;;;;;;18.88;2.47;;;;;;;8.89;100.00;97880.59;5062177;28;20213;-75
2023/12/10 01:41:58;;;;;;;16.15;2.97;;;;;;;9.00;100.00;97896.09;5053194;28;20349;-76
2023/12/10 01:44:23;;;;;;;24.95;2.90;;;;;;;8.93;100.00;97897.16;5028620;28;20067;-76
2023/12/10 01:46:48;;;;;;;21.98;2.78;;;;;;;9.06;100.00;97896.28;5062720;28;20325;-76
2023/12/10 01:49:16;;;;;;;20.63;2.72;;;;;;;9.05;100.00;97897.31;5058407;28;20032;-76
2023/12/10 01:51:43;;;;;;;27.55;2.47;;;;;;;8.99;100.00;97874.75;5062630;28;20029;-75
2023/12/10 01:54:20;;;;;;;24.48;3.17;;;;;;;9.00;100.00;97904.19;5060849;28;20097;-76
2023/12/10 01:56:46;;;;;;;19.75;2.80;;;;;;;8.90;100.00;97898.41;5061683;28;20024;-76
2023/12/10 01:59:12;;;;;;;23.50;3.10;;;;;;;8.90;100.00;97913.78;5061042;28;20028;-76
2023/12/10 02:01:37;;;;;;;25.13;2.80;;;;;;;8.88;100.00;97899.69;5043247;28;20024;-76
2023/12/10 02:04:05;;;;;;;24.30;3.55;;;;;;;8.87;100.00;97911.53;5042537;28;20322;-76
2023/12/10 02:06:30;;;;;;;20.17;3.17;;;;;;;8.87;100.00;97919.63;5050891;28;20021;-76
2023/12/10 02:08:56;;;;;;;28.45;3.40;;;;;;;8.85;100.00;97919.81;5042984;28;20032;-75
2023/12/10 02:11:22;;;;;;;28.85;3.30;;;;;;;8.77;100.00;97915.50;5040933;28;20119;-75
2023/12/10 02:13:48;;;;;;;26.77;3.17;;;;;;;8.77;100.00;97917.38;5062299;28;20291;-76
2023/12/10 02:16:13;;;;;;;18.92;2.80;;;;;;;8.79;100.00;97928.78;5038717;28;20045;-75
2023/12/10 02:18:38;;;;;;;18.55;2.78;;;;;;;8.77;100.00;97917.38;5038631;28;20024;-75
2023/12/10 02:21:04;;;;;;;29.75;3.20;;;;;;;8.80;100.00;97941.22;5061607;28;20020;-76
2023/12/10 02:23:47;;;;;;;14.80;2.33;;;;;;;8.76;100.00;97913.84;5052101;28;20325;-75
2023/12/10 02:26:12;;;;;;;23.80;3.10;;;;;;;8.87;100.00;97936.63;5054118;28;20322;-75
2023/12/10 02:28:38;;;;;;;16.65;3.17;;;;;;;8.90;100.00;97952.38;5044369;28;20084;-76
2023/12/10 02:31:03;;;;;;;24.90;3.33;;;;;;;8.89;100.00;97956.13;5054808;28;20056;-75
2023/12/10 02:33:29;;;;;;;14.48;1.98;;;;;;;8.76;100.00;97980.44;5055204;28;20033;-75
2023/12/10 02:35:55;;;;;;;10.13;1.70;;;;;;;8.38;100.00;97981.09;5037586;28;20031;-75
2023/12/10 02:38:21;;;;;;;9.15;0.80;;;;;;;8.04;100.00;97964.16;5041122;28;20044;-74
2023/12/10 02:40:47;;;;;;;10.15;1.00;;;;;;;7.78;100.00;97964.13;5043917;28;20033;-74
2023/12/10 02:46:34;;;;;;;6.22;0.70;;;;;;;7.66;100.00;97983.59;5048811;28;20036;-74
2023/12/10 02:48:59;;;;;;;5.60;0.82;;;;;;;7.55;100.00;97981.50;5058820;28;20020;-73
2023/12/10 02:51:25;;;;;;;13.55;1.45;;;;;;;7.54;100.00;97997.84;5061756;28;20239;-74
2023/12/10 02:53:50;;;;;;;4.60;0.60;;;;;;;7.49;100.00;98006.53;5050899;28;20063;-74
2023/12/10 02:56:15;;;;;;;4.75;0.70;;;;;;;7.47;100.00;98001.38;5024643;28;20045;-75
2023/12/10 02:58:40;;;;;;;6.20;0.70;;;;;;;7.32;100.00;97999.88;5061577;28;20021;-74
2023/12/10 03:01:06;;;;;;;3.65;0.82;;;;;;;7.28;100.00;97980.59;5052670;28;20090;-74
2023/12/10 03:03:31;;;;;;;3.80;0.45;;;;;;;7.25;100.00;98003.34;5056220;28;20028;-74
2023/12/10 03:05:56;;;;;;;10.55;0.95;;;;;;;7.20;100.00;98029.19;5058287;28;20214;-75
2023/12/10 03:08:22;;;;;;;8.02;0.93;;;;;;;7.17;100.00;98025.06;5049492;28;20029;-74
2023/12/10 03:10:47;;;;;;;11.35;1.33;;;;;;;7.16;100.00;98006.44;5062275;28;20025;-74
2023/12/10 03:13:12;;;;;;;10.68;1.38;;;;;;;7.14;100.00;98022.78;5065020;28;20100;-74
2023/12/10 03:15:37;;;;;;;13.45;1.73;;;;;;;7.00;100.00;98007.63;5065541;28;20191;-74
2023/12/10 03:18:03;;;;;;;11.15;1.75;;;;;;;7.06;100.00;98019.44;5042155;28;20029;-74
2023/12/10 03:20:28;;;;;;;10.60;1.63;;;;;;;7.03;100.00;98036.81;5037532;28;20099;-74
2023/12/10 03:22:53;;;;;;;9.73;1.35;;;;;;;7.12;100.00;98045.53;5065228;28;20016;-74
2023/12/10 03:25:18;;;;;;;10.15;1.33;;;;;;;6.98;100.00;98039.25;5058790;28;20036;-75
2023/12/10 03:27:44;;;;;;;19.50;1.70;;;;;;;7.01;100.00;98053.13;5061009;28;20322;-75
2023/12/10 03:30:09;;;;;;;19.20;1.70;;;;;;;7.15;100.00;98067.50;5065505;28;20091;-75
2023/12/10 03:32:34;;;;;;;15.48;1.83;;;;;;;7.09;100.00;98072.81;5045887;28;20021;-75
2023/12/10 03:34:59;;;;;;;18.83;2.03;;;;;;;6.94;100.00;98056.81;5057330;28;20096;-75
2023/12/10 03:37:25;;;;;;;17.45;2.40;;;;;;;6.90;100.00;98053.69;5046825;28;20025;-75
2023/12/10 03:39:50;;;;;;;11.60;1.35;;;;;;;6.96;100.00;98057.44;5042592;28;20119;-75
2023/12/10 03:42:15;;;;;;;12.35;1.88;;;;;;;7.03;100.00;98083.34;5060170;28;20024;-75
2023/12/10 03:44:41;;;;;;;11.38;1.45;;;;;;;7.21;100.00;98090.88;5064285;28;20048;-75
2023/12/10 03:47:06;;;;;;;19.85;1.92;;;;;;;7.41;100.00;98079.38;5065024;28;20017;-75
2023/12/10 03:49:31;;;;;;;16.83;2.60;;;;;;;7.35;100.00;98072.13;5041274;28;20078;-75
2023/12/10 03:51:57;;;;;;;19.20;2.35;;;;;;;7.44;100.00;98062.81;5046765;28;20028;-74
2023/12/10 03:54:22;;;;;;;23.10;2.47;;;;;;;7.39;100.00;98076.06;5064016;28;20355;-73
2023/12/10 03:56:47;;;;;;;17.90;2.20;;;;;;;7.32;100.00;98067.97;5047139;28;20021;-74
2023/12/10 03:59:12;;;;;;;12.23;2.22;;;;;;;7.42;100.00;98097.19;5035867;28;20342;-74
2023/12/10 04:01:42;;;;;;;21.30;1.98;;;;;;;7.61;100.00;98082.97;5060710;28;20055;-74
2023/12/10 04:04:08;;;;;;;16.92;2.05;;;;;;;7.74;100.00;98092.13;5047719;28;20035;-74
2023/12/10 04:06:37;;;;;;;18.20;2.22;;;;;;;7.77;100.00;98089.84;5064578;28;20088;-74
2023/12/10 04:09:03;;;;;;;10.48;1.67;;;;;;;7.78;100.00;98088.00;5061394;28;20096;-76
2023/12/10 04:11:28;;;;;;;19.92;2.28;;;;;;;7.82;100.00;98094.66;5064250;28;20333;-75
2023/12/10 04:13:53;;;;;;;18.52;2.47;;;;;;;7.78;100.00;98086.16;5063923;28;20092;-74
2023/12/10 04:16:29;;;;;;;21.92;2.60;;;;;;;7.93;100.00;98112.88;5042505;28;20025;-73
2023/12/10 04:18:55;;;;;;;14.90;1.63;;;;;;;7.97;100.00;98106.06;5044100;28;20047;-76
2023/12/10 04:21:23;;;;;;;13.20;2.47;;;;;;;8.00;100.00;98088.69;5043862;28;20017;-74
2023/12/10 04:23:49;;;;;;;13.63;2.07;;;;;;;7.98;100.00;98093.44;5057700;28;20251;-74
2023/12/10 04:26:15;;;;;;;19.52;2.90;;;;;;;8.08;100.00;98107.34;5045056;28;20037;-74
2023/12/10 04:28:42;;;;;;;14.00;2.47;;;;;;;8.01;100.00;98101.94;5061468;28;20029;-74
2023/12/10 04:31:08;;;;;;;14.80;2.40;;;;;;;8.13;100.00;98112.94;5052171;28;20093;-74
2023/12/10 04:33:33;;;;;;;14.38;1.55;;;;;;;8.19;100.00;98132.84;5063061;28;20094;-74
2023/12/10 04:35:59;;;;;;;11.82;1.90;;;;;;;8.18;100.00;98136.59;5052188;28;20306;-74
2023/12/10 04:38:24;;;;;;;12.93;1.70;;;;;;;8.16;100.00;98133.25;5058923;28;20079;-74
2023/12/10 04:40:49;;;;;;;20.83;3.40;;;;;;;8.15;100.00;98147.75;5059738;28;20020;-74
2023/12/10 04:43:15;;;;;;;15.05;1.67;;;;;;;8.20;100.00;98145.28;5055086;28;20048;-74
2023/12/10 04:45:41;;;;;;;11.98;1.98;;;;;;;8.18;100.00;98147.38;5035850;28;20409;-74
2023/12/10 04:48:06;;;;;;;12.32;1.67;;;;;;;8.07;100.00;98140.72;5059972;28;20221;-74
2023/12/10 04:50:31;;;;;;;13.27;1.95;;;;;;;8.08;100.00;98148.56;5056025;28;20036;-74
2023/12/10 04:52:57;;;;;;;11.95;2.20;;;;;;;8.05;100.00;98137.38;5036035;28;20056;-74
2023/12/10 04:55:22;;;;;;;13.02;1.83;;;;;;;8.03;100.00;98144.84;5048804;28;20101;-74
2023/12/10 04:57:48;;;;;;;18.55;2.10;;;;;;;8.09;100.00;98166.38;5053002;28;20210;-74
2023/12/10 05:00:14;;;;;;;14.27;1.60;;;;;;;8.17;100.00;98167.25;5053544;28;20025;-76
2023/12/10 05:02:39;;;;;;;13.35;1.73;;;;;;;8.22;100.00;98175.56;5047117;28;20049;-75
2023/12/10 05:05:05;;;;;;;13.38;1.98;;;;;;;8.23;100.00;98166.44;5063337;28;20040;-75
2023/12/10 05:07:31;;;;;;;9.93;1.35;;;;;;;8.21;100.00;98142.38;5062595;28;20024;-74
2023/12/10 05:09:57;;;;;;;13.02;1.92;;;;;;;8.24;100.00;98171.63;5062922;28;20044;-74
2023/12/10 05:12:22;;;;;;;24.08;2.80;;;;;;;8.23;100.00;98167.28;5062401;28;20229;-74
2023/12/10 05:14:47;;;;;;;18.27;1.83;;;;;;;8.22;100.00;98165.59;5063122;28;20029;-74
2023/12/10 05:17:13;;;;;;;17.40;2.05;;;;;;;8.35;100.00;98180.97;5063180;28;20084;-75
2023/12/10 05:19:38;;;;;;;12.52;1.65;;;;;;;8.30;100.00;98169.97;5061466;28;20025;-75
2023/12/10 05:22:04;;;;;;;10.45;1.73;;;;;;;8.37;100.00;98187.00;5054485;28;20013;-75
2023/12/10 05:24:29;;;;;;;17.85;1.85;;;;;;;8.32;100.00;98165.22;5025731;28;20025;-74
2023/12/10 05:26:54;;;;;;;10.18;1.88;;;;;;;8.28;100.00;98186.34;5031243;28;20321;-74
2023/12/10 05:29:19;;;;;;;9.55;1.75;;;;;;;8.27;100.00;98194.63;5035207;28;20025;-74
2023/12/10 05:31:45;;;;;;;12.55;1.88;;;;;;;8.31;100.00;98201.28;5032219;28;20053;-75
2023/12/10 05:34:10;;;;;;;10.23;1.77;;;;;;;8.32;100.00;98211.03;5048613;28;20052;-74
2023/12/10 05:36:35;;;;;;;16.38;2.42;;;;;;;8.38;100.00;98212.91;5062997;28;20036;-74
2023/12/10 05:39:00;;;;;;;23.73;2.42;;;;;;;8.23;100.00;98204.19;5059860;28;20218;-75
2023/12/10 05:41:26;;;;;;;13.35;1.73;;;;;;;8.24;100.00;98222.81;5040581;28;20084;-75
2023/12/10 05:43:51;;;;;;;13.13;1.38;;;;;;;8.13;100.00;98205.38;5052540;28;20073;-76
2023/12/10 05:46:16;;;;;;;19.30;1.83;;;;;;;8.19;100.00;98221.78;5025220;28;20088;-75
2023/12/10 05:48:44;;;;;;;17.15;2.08;;;;;;;8.16;100.00;98211.41;5101229;22;20082;-78
2023/12/10 05:51:10;;;;;;;14.82;1.30;;;;;;;7.94;100.00;98189.13;5084142;28;20093;-77
2023/12/10 05:53:36;;;;;;;11.85;2.22;;;;;;;8.12;100.00;98203.72;5058856;28;20261;-77
2023/12/10 05:56:01;;;;;;;10.10;1.70;;;;;;;8.01;100.00;98190.00;5072106;28;20029;-77
2023/12/10 05:58:27;;;;;;;16.98;2.05;;;;;;;7.97;100.00;98165.34;5064348;28;20031;-77
2023/12/10 06:00:52;;;;;;;20.42;2.47;;;;;;;8.15;100.00;98213.28;5077458;28;20353;-76
2023/12/10 06:03:17;;;;;;;9.60;1.42;;;;;;;8.05;100.00;98197.47;5076007;28;20032;-77
2023/12/10 06:05:43;;;;;;;19.60;1.52;;;;;;;7.99;100.00;98194.75;5080323;28;20104;-76
2023/12/10 06:08:09;;;;;;;10.65;1.92;;;;;;;8.06;100.00;98207.22;5071808;28;20024;-76
2023/12/10 06:10:35;;;;;;;17.58;1.65;;;;;;;8.04;100.00;98225.47;5056825;28;20028;-76
2023/12/10 06:13:00;;;;;;;5.95;1.20;;;;;;;8.01;100.00;98225.84;5061188;28;20120;-76
2023/12/10 06:15:25;;;;;;;11.95;1.52;;;;;;;8.01;100.00;98238.47;5059499;28;20032;-76
2023/12/10 06:17:51;;;;;;;12.82;1.80;;;;;;;7.98;100.00;98242.41;5079490;28;20229;-77
2023/12/10 06:20:16;;;;;;;11.50;1.80;;;;;;;8.00;100.00;98236.84;5072047;28;20029;-76
2023/12/10 06:22:42;;;;;;;19.33;1.73;;;;;;;8.00;100.00;98240.34;5048358;28;20017;-77
2023/12/10 06:25:07;;;;;;;13.20;1.50;;;;;;;8.03;100.00;98252.59;5079521;28;20020;-81
2023/12/10 06:27:32;;;;;;;11.23;1.90;;;;;;;8.05;100.00;98239.75;5049691;28;20025;-78
2023/12/10 06:29:58;;;;;;;21.23;1.67;;;;;;;7.97;100.00;98229.97;5069764;28;20079;-76
2023/12/10 06:32:24;;;;;;;7.68;1.20;;;;;;;8.08;100.00;98240.19;5054454;28;20099;-76
2023/12/10 06:34:50;;;;;;;10.85;1.58;;;;;;;8.16;100.00;98241.88;5065384;28;20030;-81
2023/12/10 06:37:15;;;;;;;17.33;2.38;;;;;;;8.06;100.00;98234.16;5067124;28;20047;-80
2023/12/10 06:39:41;;;;;;;13.15;1.83;;;;;;;8.10;100.00;98273.16;5068853;28;20021;-82
2023/12/10 06:42:06;;;;;;;17.02;1.50;;;;;;;8.17;100.00;98275.03;5067687;28;20079;-76
2023/12/10 06:44:34;;;;;;;10.77;1.25;;;;;;;8.14;100.00;98281.66;5074513;28;20036;-78
2023/12/10 06:46:59;;;;;;;11.77;1.98;;;;;;;8.13;100.00;98253.88;5076139;28;20082;-76
2023/12/10 06:49:25;;;;;;;13.43;1.85;;;;;;;8.08;100.00;98261.72;5064488;28;20032;-77
2023/12/10 06:51:50;;;;;;;10.70;1.67;;;;;;;8.09;100.00;98252.59;5072553;28;20217;-77
2023/12/10 06:54:15;;;;;;;9.38;1.45;;;;;;;8.16;100.00;98271.50;5067285;28;20083;-76
2023/12/10 06:56:40;;;;;;;10.57;1.33;;;;;;;8.05;100.00;98255.94;5064738;28;20036;-76
2023/12/10 06:59:07;;;;;;;17.25;1.88;;;;;;;8.06;100.00;98281.81;5084682;28;20240;-76
2023/12/10 07:01:34;;;;;;;9.65;2.00;;;;;;;8.04;100.00;98273.97;5064088;28;20099;-76
2023/12/10 07:03:59;;;;;;;10.88;1.65;;;;;;;8.06;100.00;98271.88;5081686;28;20379;-76
2023/12/10 07:06:25;;;;;;;8.32;1.42;;;;;;;8.03;100.00;98293.81;5064145;28;20146;-75
2023/12/10 07:08:50;;;;;;;11.70;1.77;;;;;;;8.01;100.00;98292.38;5049834;28;20025;-75
2023/12/10 07:11:15;;;;;;;12.73;1.80;;;;;;;8.06;100.00;98300.69;5075230;28;20060;-76
2023/12/10 07:13:41;;;;;;;11.13;1.98;;;;;;;7.97;100.00;98296.50;5080638;28;20333;-76
2023/12/10 07:16:06;;;;;;;13.07;1.50;;;;;;;7.94;100.00;98316.59;5078652;28;20082;-74
2023/12/10 07:18:32;;;;;;;20.10;1.50;;;;;;;7.97;100.00;98318.06;5078169;28;20024;-76
2023/12/10 07:20:57;;;;;;;19.30;1.90;;;;;;;8.10;100.00;98340.50;5083119;28;20020;-76
2023/12/10 07:23:22;;;;;;;13.07;1.55;;;;;;;7.99;100.00;98316.81;5065901;28;20051;-75
2023/12/10 07:25:47;;;;;;;12.18;1.77;;;;;;;8.13;100.00;98334.72;5076332;28;20025;-75
2023/12/10 07:28:13;;;;;;;16.05;1.45;;;;;;;8.08;100.00;98342.56;5084172;28;20100;-77
2023/12/10 07:30:38;;;;;;;19.30;2.38;;;;;;;8.04;100.00;98345.84;5091049;28;20058;-75
2023/12/10 07:33:04;;;;;;;14.32;2.15;;;;;;;8.00;100.00;98345.41;5069452;28;20035;-76
2023/12/10 07:35:29;;;;;;;22.55;2.55;;;;;;;8.01;100.00;98338.97;5096629;28;20044;-76
2023/12/10 07:37:54;;;;;;;10.25;1.10;;;;;;;8.08;100.00;98352.50;5086831;28;20051;-76
2023/12/10 07:40:19;;;;;;;12.27;1.08;;;;;;;8.05;100.00;98351.03;5085348;28;20024;-76
2023/12/10 07:42:45;;;;;;;16.10;1.50;;;;;;;8.10;100.00;98372.84;5073361;28;20082;-76
2023/12/10 07:45:10;;;;;;;14.90;1.23;;;;;;;8.08;100.00;98344.44;5088814;28;20036;-75
2023/12/10 07:47:36;;;;;;;17.60;1.50;;;;;;;8.07;100.00;98361.63;5091897;28;20024;-76
2023/12/10 07:50:01;;;;;;;9.02;1.40;;;;;;;8.11;100.00;98377.19;5091972;28;20028;-76
2023/12/10 07:52:26;;;;;;;11.93;1.98;;;;;;;8.25;100.00;98377.25;5072314;28;20024;-76
2023/12/10 07:54:51;;;;;;;13.77;1.80;;;;;;;8.20;100.00;98371.63;5073211;28;20035;-75
2023/12/10 07:57:17;;;;;;;15.30;1.80;;;;;;;8.29;100.00;98405.47;5089334;28;20020;-75
2023/12/10 07:59:42;;;;;;;15.63;1.88;;;;;;;8.48;100.00;98420.13;5078921;28;20028;-77
2023/12/10 08:02:07;;;;;;;10.13;1.48;;;;;;;8.46;100.00;98406.88;5070419;28;20028;-76
2023/12/10 08:04:33;;;;;;;9.48;1.25;;;;;;;8.46;100.00;98403.31;5079948;28;20024;-76
2023/12/10 08:06:58;;;;;;;14.52;2.22;;;;;;;8.55;100.00;98407.53;5082703;28;20048;-77
2023/12/10 08:09:23;;;;;;;18.42;2.00;;;;;;;8.59;100.00;98427.66;5067260;28;20032;-79
2023/12/10 08:11:48;;;;;;;11.25;1.75;;;;;;;8.56;100.00;98418.09;5076186;28;20027;-76
2023/12/10 08:14:14;;;;;;;8.70;1.98;;;;;;;8.63;100.00;98430.78;5063188;28;20195;-75
2023/12/10 08:16:40;;;;;;;13.55;1.55;;;;;;;8.65;100.00;98451.13;5052488;28;20020;-74
2023/12/10 08:19:05;;;;;;;7.63;1.67;;;;;;;8.64;100.00;98438.66;5079813;28;20024;-75
2023/12/10 08:21:30;;;;;;;14.70;1.90;;;;;;;8.70;100.00;98442.47;5056134;28;20116;-76
2023/12/10 08:23:55;;;;;;;8.35;1.40;;;;;;;8.75;100.00;98434.56;5055654;28;20229;-75
2023/12/10 08:26:21;;;;;;;14.75;1.27;;;;;;;8.84;100.00;98440.63;5074416;28;20084;-76
2023/12/10 08:28:47;;;;;;;8.15;1.40;;;;;;;8.83;100.00;98418.22;5059184;28;20313;-78
2023/12/10 08:31:12;;;;;;;18.10;2.05;;;;;;;8.73;100.00;98415.06;5075809;28;20024;-80
2023/12/10 08:33:38;;;;;;;11.95;1.30;;;;;;;9.00;100.00;98407.91;5076494;28;20104;-79
2023/12/10 08:36:03;;;;;;;11.68;1.48;;;;;;;9.12;100.00;98430.56;5094884;28;20044;-80
2023/12/10 08:38:29;;;;;;;20.05;2.10;;;;;;;9.17;100.00;98435.38;5080001;28;20017;-80
2023/12/10 08:40:55;;;;;;;17.60;1.65;;;;;;;9.18;100.00;98431.63;5096747;28;20021;-80
2023/12/10 08:43:20;;;;;;;12.20;2.10;;;;;;;9.22;100.00;98446.34;5076103;28;20285;-79
2023/12/10 08:45:46;;;;;;;13.55;1.60;;;;;;;9.23;100.00;98448.03;5073863;28;20108;-78
2023/12/10 08:48:11;;;;;;;9.68;1.33;;;;;;;9.12;100.00;98443.25;5089974;28;20013;-80
2023/12/10 08:50:36;;;;;;;10.73;2.03;;;;;;;9.04;100.00;98459.59;5076311;28;20029;-79
2023/12/10 08:53:02;;;;;;;14.32;1.88;;;;;;;9.02;100.00;98453.59;5084999;28;20032;-77
2023/12/10 08:55:28;;;;;;;15.23;2.15;;;;;;;8.91;100.00;98455.81;5068075;28;20035;-76
2023/12/10 08:57:53;;;;;;;14.20;1.83;;;;;;;9.09;100.00;98460.66;5087571;28;20021;-77
2023/12/10 09:00:18;;;;;;;16.45;1.77;;;;;;;9.00;100.00;98451.91;5075944;28;20028;-77
2023/12/10 09:02:44;;;;;;;14.85;1.88;;;;;;;9.05;100.00;98445.09;5061315;28;20099;-76
2023/12/10 09:05:09;;;;;;;12.35;1.75;;;;;;;9.04;100.00;98441.56;5078194;28;20028;-77
2023/12/10 09:07:34;;;;;;;11.15;1.77;;;;;;;9.05;100.00;98478.28;5080049;28;20032;-75
2023/12/10 09:09:59;;;;;;;13.20;1.60;;;;;;;9.79;100.00;98454.97;5080145;28;20084;-77
2023/12/10 09:12:28;;;;;;;13.82;1.48;;;;;;;10.71;100.00;98445.13;5070852;28;20025;-77
2023/12/10 09:14:53;;;;;;;10.80;1.50;;;;;;;11.66;100.00;98452.56;5059613;28;20225;-77
2023/12/10 09:17:22;;;;;;;17.70;1.75;;;;;;;10.93;100.00;98470.88;5079191;28;20047;-76
2023/12/10 09:19:48;;;;;;;10.52;1.80;;;;;;;11.43;100.00;98448.56;5078223;28;20032;-75
2023/12/10 09:22:13;;;;;;;11.45;1.70;;;;;;;11.03;100.00;98458.75;5079713;28;20025;-77
2023/12/10 09:24:39;;;;;;;13.73;1.85;;;;;;;11.11;100.00;98475.59;5057461;28;20023;-80
2023/12/10 09:27:05;;;;;;;12.15;1.40;;;;;;;11.44;100.00;98463.75;5053688;28;20058;-80
2023/12/10 09:29:35;;;;;;;13.40;1.85;;;;;;;10.96;100.00;98466.91;5071365;28;20025;-80
2023/12/10 09:32:01;;;;;;;6.70;1.23;;;;;;;10.28;100.00;98459.16;5058221;28;20099;-80
2023/12/10 09:34:26;;;;;;;8.18;1.52;;;;;;;9.99;100.00;98474.75;5074035;28;20025;-78
2023/12/10 09:36:51;;;;;;;12.07;1.35;;;;;;;9.51;100.00;98483.00;5078856;28;20226;-77
2023/12/10 09:39:18;;;;;;;12.77;1.45;;;;;;;9.41;100.00;98499.59;5076018;28;20033;-78
2023/12/10 09:41:43;;;;;;;13.75;1.55;;;;;;;9.47;100.00;98507.91;5058292;28;20206;-79
2023/12/10 09:44:09;;;;;;;13.13;1.52;;;;;;;9.45;100.00;98502.72;5065428;28;20039;-79
2023/12/10 09:46:35;;;;;;;7.70;1.42;;;;;;;9.25;100.00;98494.56;5067000;28;20032;-78
2023/12/10 09:49:00;;;;;;;15.52;1.63;;;;;;;9.23;100.00;98493.94;5056343;28;20240;-79
2023/12/10 09:51:26;;;;;;;13.25;1.80;;;;;;;9.54;100.00;98512.31;5054156;28;20060;-77
2023/12/10 09:53:52;;;;;;;9.02;1.42;;;;;;;9.73;100.00;98521.47;5074946;28;20341;-78
2023/12/10 09:56:17;;;;;;;15.68;1.95;;;;;;;9.72;100.00;98503.63;5060840;28;20032;-79
2023/12/10 09:58:43;;;;;;;12.55;1.40;;;;;;;10.10;100.00;98525.47;5055800;28;20035;-79
2023/12/10 10:01:08;;;;;;;11.95;1.35;;;;;;;10.28;100.00;98495.16;5056877;28;20104;-78
2023/12/10 10:03:37;;;;;;;10.15;1.17;;;;;;;10.22;100.00;98495.97;5078227;28;20025;-80
2023/12/10 10:06:02;;;;;;;15.35;2.15;;;;;;;10.34;100.00;98507.00;5055297;28;20159;-79
2023/12/10 10:08:28;;;;;;;16.48;1.83;;;;;;;11.05;100.00;98513.50;5056981;28;20044;-78
2023/12/10 10:10:54;;;;;;;7.03;1.30;;;;;;;11.31;100.00;98472.78;5054882;28;20052;-78
2023/12/10 10:13:19;;;;;;;13.40;1.60;;;;;;;11.03;100.00;98504.75;5060642;28;20226;-78
2023/12/10 10:15:44;;;;;;;7.90;1.27;;;;;;;10.34;100.00;98503.47;5059520;28;20029;-78
2023/12/10 10:18:10;;;;;;;12.02;1.90;;;;;;;10.31;100.00;98505.53;5057716;28;20032;-79
2023/12/10 10:20:38;;;;;;;11.98;1.35;;;;;;;9.98;100.00;98494.72;5057157;28;20029;-78
2023/12/10 10:23:04;;;;;;;13.57;1.52;;;;;;;9.59;100.00;98490.91;5064856;28;20096;-79
2023/12/10 10:25:30;;;;;;;10.88;1.65;;;;;;;9.97;100.00;98511.94;5058258;28;20550;-79
2023/12/10 10:27:55;;;;;;;11.13;1.45;;;;;;;10.17;100.00;98520.09;5070423;28;20032;-78
2023/12/10 10:30:20;;;;;;;9.02;1.40;;;;;;;10.05;100.00;98503.63;5059957;28;20058;-78
2023/12/10 10:32:46;;;;;;;12.70;2.05;;;;;;;10.32;100.00;98514.47;5069267;28;20337;-79
2023/12/10 10:35:12;;;;;;;14.90;1.63;;;;;;;10.36;100.00;98518.44;5067451;28;20031;-78
2023/12/10 10:37:37;;;;;;;8.68;1.20;;;;;;;10.17;100.00;98528.19;5068987;28;20043;-78
2023/12/10 10:40:03;;;;;;;12.50;1.65;;;;;;;9.83;100.00;98519.22;5066893;28;20032;-78
2023/12/10 10:42:29;;;;;;;10.43;1.35;;;;;;;10.02;100.00;98514.03;5061595;28;20023;-77
2023/12/10 10:44:54;;;;;;;9.32;1.23;;;;;;;10.09;100.00;98517.59;5068507;28;20068;-80
2023/12/10 10:47:21;;;;;;;12.80;1.45;;;;;;;9.93;100.00;98517.97;5060769;28;20025;-76
2023/12/10 10:49:53;;;;;;;9.18;1.45;;;;;;;9.75;100.00;98510.47;5076843;28;20036;-79
2023/12/10 10:52:27;;;;;;;8.70;1.30;;;;;;;9.84;100.00;98504.66;5079080;28;20021;-78
2023/12/10 10:54:54;;;;;;;7.15;2.13;;;;;;;9.66;100.00;98505.25;5071995;28;20360;-80
2023/12/10 10:57:29;;;;;;;8.95;1.88;;;;;;;9.69;100.00;98522.91;5064717;28;20024;-78
2023/12/10 10:59:55;;;;;;;11.93;2.35;;;;;;;9.69;100.00;98522.91;5057331;28;20360;-78
2023/12/10 11:02:21;;;;;;;14.13;1.63;;;;;;;9.53;100.00;98518.72;5063055;28;20051;-79
2023/12/10 11:04:47;;;;;;;13.55;1.30;;;;;;;9.26;100.00;98530.47;5061917;28;20245;-78
2023/12/10 11:07:15;;;;;;;12.18;1.77;;;;;;;9.09;100.00;98521.88;5074513;28;20028;-79
2023/12/10 11:10:00;;;;;;;18.23;1.50;;;;;;;9.20;100.00;98535.66;5071018;28;20032;-79
2023/12/10 11:12:41;;;;;;;9.68;1.50;;;;;;;9.31;100.00;98528.00;5069011;28;20050;-77
2023/12/10 11:15:28;;;;;;;9.50;1.30;;;;;;;9.23;100.00;98526.31;5075105;28;20024;-78
2023/12/10 11:17:58;;;;;;;14.50;1.50;;;;;;;9.31;100.00;98531.53;5060192;28;20048;-78
2023/12/10 11:20:40;;;;;;;10.48;1.80;;;;;;;9.19;100.00;98535.84;5081019;28;20096;-77
2023/12/10 11:23:11;;;;;;;8.93;1.67;;;;;;;9.24;100.00;98524.44;5074829;28;20032;-78